Time;durP1;ratioP1;P1;durP2;ratioP2;P2;SDS_P1;SDS_P2;PMS_P1;PMS_P2;Temp;Humidity;BMP_temperature;BMP_pressure;BME280_temperature;BME280_humidity;BME280_pressure;Samples;Min_cycle;Max_cycle;Signal;HPM_P1;HPM_P2
2022/06/11 00:08:25;;;;;;;;;;;27.80;28.90;;;;;;21263026;27;19923;-73
2022/06/11 00:18:28;;;;;;;;;;;27.90;28.40;;;;;;21243680;27;19930;-70
2022/06/11 00:28:30;;;;;;;;;;;27.90;28.40;;;;;;21261546;27;19967;-70
2022/06/11 00:38:32;;;;;;;;;;;27.90;28.50;;;;;;21260791;27;19947;-70
2022/06/11 00:48:37;;;;;;;;;;;27.80;28.90;;;;;;21259914;27;19923;-70
2022/06/11 00:58:41;;;;;;;;;;;27.70;30.00;;;;;;21258974;27;19934;-72
2022/06/11 01:09:09;;;;;;;;;;;27.50;32.30;;;;;;21267375;27;20010;-68
2022/06/11 01:19:14;;;;;;;;;;;27.30;34.80;;;;;;21274351;27;19923;-68
2022/06/11 01:29:26;;;;;;;;;;;27.20;37.20;;;;;;21262576;27;20409;-73
2022/06/11 01:39:30;;;;;;;;;;;27.00;39.10;;;;;;21255391;27;19923;-71
2022/06/11 01:49:51;;;;;;;;;;;26.80;40.70;;;;;;21254641;27;19932;-72
2022/06/11 02:00:02;;;;;;;;;;;26.70;41.30;;;;;;21252658;27;20002;-73
2022/06/11 02:10:28;;;;;;;;;;;26.60;42.20;;;;;;21252450;27;19934;-72
2022/06/11 02:20:39;;;;;;;;;;;26.20;43.00;;;;;;21245201;27;19931;-72
2022/06/11 02:30:42;;;;;;;;;;;26.20;43.30;;;;;;21252547;27;20003;-69
2022/06/11 02:41:00;;;;;;;;;;;26.00;43.60;;;;;;21252578;27;20307;-68
2022/06/11 02:51:01;;;;;;;;;;;25.80;44.00;;;;;;21266588;27;20430;-70
2022/06/11 03:01:03;;;;;;;;;;;25.70;44.30;;;;;;21249131;27;20003;-72
2022/06/11 03:11:04;;;;;;;;;;;25.70;44.80;;;;;;21248417;27;20378;-68
2022/06/11 03:21:05;;;;;;;;;;;25.60;44.50;;;;;;21247896;28;20007;-68
2022/06/11 03:31:07;;;;;;;;;;;25.60;44.90;;;;;;21247718;28;20037;-68
2022/06/11 03:41:08;;;;;;;;;;;25.50;44.40;;;;;;21247387;28;19981;-67
2022/06/11 03:51:10;;;;;;;;;;;25.40;44.40;;;;;;21246908;28;19984;-69
2022/06/11 04:01:14;;;;;;;;;;;25.30;43.80;;;;;;21262057;27;19927;-68
2022/06/11 04:11:18;;;;;;;;;;;25.20;43.30;;;;;;21246222;28;19927;-67
2022/06/11 04:21:20;;;;;;;;;;;25.20;42.80;;;;;;21250496;27;20299;-68
2022/06/11 04:31:23;;;;;;;;;;;25.20;42.40;;;;;;21260594;27;20398;-68
2022/06/11 04:41:25;;;;;;;;;;;25.10;41.20;;;;;;21261107;27;20328;-71
2022/06/11 04:51:27;;;;;;;;;;;25.00;39.80;;;;;;21260407;27;20403;-72
2022/06/11 05:01:29;;;;;;;;;;;24.90;38.30;;;;;;21257929;27;19930;-71
2022/06/11 05:11:30;;;;;;;;;;;24.80;38.20;;;;;;21257423;27;19923;-72
2022/06/11 05:21:33;;;;;;;;;;;24.60;38.40;;;;;;21257017;27;20298;-70
2022/06/11 05:31:37;;;;;;;;;;;24.60;39.10;;;;;;21254834;27;20320;-72
2022/06/11 05:41:39;;;;;;;;;;;24.50;39.80;;;;;;21270603;27;19928;-72
2022/06/11 05:51:42;;;;;;;;;;;24.50;40.30;;;;;;21254475;27;19931;-72
2022/06/11 06:01:44;;;;;;;;;;;24.60;40.60;;;;;;21254835;27;19923;-74
2022/06/11 06:11:45;;;;;;;;;;;24.90;39.90;;;;;;21251773;27;19923;-65
2022/06/11 06:21:47;;;;;;;;;;;25.10;40.10;;;;;;21251348;27;20397;-65
2022/06/11 06:31:48;;;;;;;;;;;25.20;40.50;;;;;;21250607;27;20287;-64
2022/06/11 06:41:50;;;;;;;;;;;25.40;40.90;;;;;;21250049;27;19967;-65
2022/06/11 06:51:51;;;;;;;;;;;25.60;41.50;;;;;;21250223;27;19923;-69
2022/06/11 07:01:53;;;;;;;;;;;26.70;40.60;;;;;;21251482;27;19980;-66
2022/06/11 07:11:54;;;;;;;;;;;27.60;39.50;;;;;;21247868;27;19958;-66
2022/06/11 07:22:00;;;;;;;;;;;28.10;39.00;;;;;;21245597;28;19927;-67
2022/06/11 07:32:04;;;;;;;;;;;28.50;38.20;;;;;;21228424;28;19968;-69
2022/06/11 07:42:06;;;;;;;;;;;29.00;37.40;;;;;;21248382;28;19960;-67
2022/06/11 07:52:07;;;;;;;;;;;29.20;37.00;;;;;;21247822;28;19931;-68
2022/06/11 08:02:09;;;;;;;;;;;29.40;36.50;;;;;;21261927;27;19923;-69
2022/06/11 08:12:10;;;;;;;;;;;29.90;35.70;;;;;;21262922;27;20386;-69
2022/06/11 08:22:12;;;;;;;;;;;30.10;35.20;;;;;;21243751;27;19924;-72
2022/06/11 08:32:13;;;;;;;;;;;30.40;34.70;;;;;;21261459;27;19930;-72
2022/06/11 08:42:43;;;;;;;;;;;30.70;34.30;;;;;;21259219;27;20157;-72
2022/06/11 08:52:45;;;;;;;;;;;30.90;34.20;;;;;;21256289;27;19931;-69
2022/06/11 09:02:46;;;;;;;;;;;31.20;33.60;;;;;;21239995;27;19941;-60
2022/06/11 09:13:01;;;;;;;;;;;31.00;33.90;;;;;;21256570;27;20283;-58
2022/06/11 09:23:05;;;;;;;;;;;31.10;33.80;;;;;;21256205;27;19923;-62
2022/06/11 09:33:15;;;;;;;;;;;31.30;33.50;;;;;;21256764;27;19932;-66
2022/06/11 09:43:26;;;;;;;;;;;31.60;33.30;;;;;;21257597;27;20014;-66
2022/06/11 09:53:27;;;;;;;;;;;31.70;33.30;;;;;;21255288;27;19928;-70
2022/06/11 10:03:35;;;;;;;;;;;;;;;;;;21239783;27;19953;-69
2022/06/11 10:14:28;;;;;;;;;;;32.40;32.50;;;;;;21253604;27;19995;-70
2022/06/11 10:24:22;;;;;;;;;;;31.80;33.00;;;;;;21076032;28;19931;-73
2022/06/11 10:34:25;;;;;;;;;;;31.80;32.90;;;;;;21090968;28;20035;-70
2022/06/11 10:44:30;;;;;;;;;;;32.50;31.90;;;;;;21077663;28;20329;-70
2022/06/11 10:54:31;;;;;;;;;;;32.40;31.70;;;;;;21113157;27;19930;-70
2022/06/11 11:04:37;;;;;;;;;;;32.40;31.50;;;;;;21250090;27;20440;-69
2022/06/11 11:14:41;;;;;;;;;;;32.50;31.60;;;;;;21250414;27;19931;-75
2022/06/11 11:24:46;;;;;;;;;;;32.60;31.10;;;;;;21260463;28;19977;-70
2022/06/11 11:34:50;;;;;;;;;;;33.20;30.60;;;;;;21271350;27;19931;-73
2022/06/11 11:44:57;;;;;;;;;;;33.40;30.00;;;;;;21269895;27;20340;-70
2022/06/11 11:54:58;;;;;;;;;;;33.60;29.90;;;;;;21262413;27;19931;-69
2022/06/11 12:05:01;;;;;;;;;;;33.90;29.20;;;;;;21263039;27;20340;-68
2022/06/11 12:15:23;;;;;;;;;;;34.00;29.10;;;;;;21263600;27;20291;-70
2022/06/11 12:25:30;;;;;;;;;;;34.10;28.70;;;;;;21242133;27;20287;-69
2022/06/11 12:35:32;;;;;;;;;;;34.20;28.90;;;;;;21259056;27;19923;-69
2022/06/11 12:45:54;;;;;;;;;;;34.60;28.50;;;;;;21258742;27;20424;-67
2022/06/11 12:55:56;;;;;;;;;;;;;;;;;;21259248;27;19923;-68
2022/06/11 13:06:07;;;;;;;;;;;35.00;28.10;;;;;;21258023;27;20404;-68
2022/06/11 13:16:17;;;;;;;;;;;35.10;27.90;;;;;;21256534;27;19971;-67
2022/06/11 13:26:38;;;;;;;;;;;35.20;27.80;;;;;;21255285;27;19923;-70
2022/06/11 13:36:52;;;;;;;;;;;35.40;28.00;;;;;;21254007;27;19928;-69
2022/06/11 13:46:56;;;;;;;;;;;35.70;27.10;;;;;;21253822;27;20302;-65
2022/06/11 13:57:16;;;;;;;;;;;35.60;27.00;;;;;;21251854;27;19930;-62
2022/06/11 14:07:19;;;;;;;;;;;35.80;26.70;;;;;;21252186;27;19923;-63
2022/06/11 14:17:39;;;;;;;;;;;36.10;26.00;;;;;;21250732;27;20348;-66
2022/06/11 14:27:40;;;;;;;;;;;;;;;;;;21249940;27;19923;-66
2022/06/11 14:37:42;;;;;;;;;;;36.40;25.70;;;;;;21250869;27;19923;-67
2022/06/11 14:48:09;;;;;;;;;;;36.80;24.50;;;;;;21265122;27;19931;-71
2022/06/11 14:58:17;;;;;;;;;;;36.70;24.60;;;;;;21246572;27;20008;-70
2022/06/11 15:08:18;;;;;;;;;;;36.70;24.60;;;;;;21248528;27;19923;-70
2022/06/11 15:18:44;;;;;;;;;;;37.80;23.80;;;;;;21249736;27;19962;-71
2022/06/11 15:29:04;;;;;;;;;;;37.00;24.60;;;;;;21070502;28;19969;-64
2022/06/11 15:39:11;;;;;;;;;;;37.10;23.80;;;;;;21069122;28;19924;-66
2022/06/11 15:49:24;;;;;;;;;;;37.30;24.10;;;;;;21068637;28;19923;-70
2022/06/11 15:59:27;;;;;;;;;;;37.20;24.30;;;;;;21114247;28;19923;-66
2022/06/11 16:09:31;;;;;;;;;;;36.70;24.80;;;;;;21246077;28;19923;-66
2022/06/11 16:19:33;;;;;;;;;;;36.90;24.30;;;;;;21253618;27;19923;-69
2022/06/11 16:29:47;;;;;;;;;;;36.90;24.40;;;;;;21260729;27;19969;-66
2022/06/11 16:39:49;;;;;;;;;;;36.80;24.40;;;;;;21259965;27;20394;-66
2022/06/11 17:00:38;;;;;;;;;;;36.40;24.40;;;;;;21257837;27;19923;-67
2022/06/11 17:10:40;;;;;;;;;;;36.50;24.20;;;;;;21257514;27;19927;-66
2022/06/11 17:20:42;;;;;;;;;;;36.40;23.80;;;;;;21257061;27;19923;-68
2022/06/11 17:30:43;;;;;;;;;;;36.40;23.30;;;;;;21255788;27;20018;-69
2022/06/11 17:40:47;;;;;;;;;;;36.50;23.50;;;;;;21254966;27;20002;-66
2022/06/11 17:50:49;;;;;;;;;;;36.30;23.60;;;;;;21254577;27;20022;-66
2022/06/11 18:00:51;;;;;;;;;;;36.10;23.00;;;;;;21253064;27;19923;-69
2022/06/11 18:10:53;;;;;;;;;;;35.90;23.20;;;;;;21252872;27;19930;-67
2022/06/11 18:20:54;;;;;;;;;;;35.70;23.60;;;;;;21251403;27;19930;-63
2022/06/11 18:30:56;;;;;;;;;;;35.80;22.70;;;;;;21251406;27;20287;-63
2022/06/11 18:40:57;;;;;;;;;;;35.50;22.80;;;;;;21249545;27;19933;-68
2022/06/11 18:50:59;;;;;;;;;;;35.10;23.30;;;;;;21251335;27;19923;-67
2022/06/11 19:01:01;;;;;;;;;;;34.90;23.30;;;;;;21248052;27;19976;-66
2022/06/11 19:11:04;;;;;;;;;;;34.70;23.50;;;;;;21247723;27;20363;-66
2022/06/11 19:21:06;;;;;;;;;;;34.50;23.40;;;;;;21247174;27;19930;-67
2022/06/11 19:31:07;;;;;;;;;;;34.40;23.30;;;;;;21229948;28;19978;-64
2022/06/11 19:41:10;;;;;;;;;;;34.20;23.50;;;;;;21246822;28;20332;-63
2022/06/11 19:51:13;;;;;;;;;;;34.00;23.70;;;;;;21249723;27;19963;-66
2022/06/11 20:01:16;;;;;;;;;;;33.70;24.00;;;;;;21262392;27;19923;-66
2022/06/11 20:11:19;;;;;;;;;;;33.40;23.90;;;;;;21261584;27;19924;-69
2022/06/11 20:21:20;;;;;;;;;;;33.20;24.00;;;;;;21261806;27;19930;-67
2022/06/11 20:31:22;;;;;;;;;;;33.10;23.90;;;;;;21261392;27;20416;-68
2022/06/11 20:41:23;;;;;;;;;;;32.90;24.00;;;;;;21260231;27;20390;-68
2022/06/11 20:51:32;;;;;;;;;;;32.60;23.80;;;;;;21258431;27;19993;-64
2022/06/11 21:01:34;;;;;;;;;;;32.50;23.70;;;;;;21257902;27;19931;-65
2022/06/11 21:11:54;;;;;;;;;;;;;;;;;;21256849;27;20021;-68
2022/06/11 21:21:58;;;;;;;;;;;32.10;24.20;;;;;;21255924;27;19937;-65
2022/06/11 21:32:00;;;;;;;;;;;;;;;;;;21255589;27;20064;-64
2022/06/11 21:42:02;;;;;;;;;;;;;;;;;;21255773;27;19976;-64
2022/06/11 21:52:03;;;;;;;;;;;;;;;;;;21255446;27;19924;-65
2022/06/11 22:02:06;;;;;;;;;;;32.30;23.90;;;;;;21253856;27;19923;-64
2022/06/11 22:12:09;;;;;;;;;;;;;;;;;;21254059;27;19927;-67
2022/06/11 22:22:11;;;;;;;;;;;;;;;;;;21251486;27;19947;-69
2022/06/11 22:32:14;;;;;;;;;;;31.60;24.50;;;;;;21266237;27;19923;-68
2022/06/11 22:42:15;;;;;;;;;;;30.50;25.50;;;;;;21252790;27;19923;-68
2022/06/11 22:52:17;;;;;;;;;;;30.20;25.70;;;;;;21256664;27;19923;-67
2022/06/11 23:02:18;;;;;;;;;;;30.10;25.90;;;;;;21261545;27;19923;-65
2022/06/11 23:12:20;;;;;;;;;;;29.80;26.40;;;;;;21250474;27;20351;-63
2022/06/11 23:22:23;;;;;;;;;;;29.50;26.50;;;;;;21248327;27;20420;-64
2022/06/11 23:32:24;;;;;;;;;;;29.30;26.20;;;;;;21263989;27;19931;-68
2022/06/11 23:42:26;;;;;;;;;;;29.10;25.80;;;;;;21264874;27;19923;-64
2022/06/11 23:52:27;;;;;;;;;;;28.90;25.60;;;;;;21263788;27;20375;-65
